Time,TemperatureF,DewpointF,PressureIn,WindDirection,WindDirectionDegrees,WindSpeedMPH,WindSpeedGustMPH,Humidity,HourlyPrecipIn,Conditions,Clouds,dailyrainin,SoftwareType,DateUTC
2013-01-29 00:01:00,13.0,-2.0,29.90,SSW,194,1.0,3.0,51,0.00,,,0.01,,2013-01-29 07:01:00,
2013-01-29 00:11:00,13.0,-2.0,29.90,SSW,194,1.0,3.0,51,0.00,,,0.01,,2013-01-29 07:11:00,
2013-01-29 00:21:00,10.0,-3.0,29.91,SSW,194,2.0,4.0,55,0.00,,,0.01,,2013-01-29 07:21:00,
2013-01-29 00:31:00,10.0,-2.0,29.91,SSW,194,0.0,4.0,57,0.00,,,0.01,,2013-01-29 07:31:00,
2013-01-29 00:41:00,10.0,-2.0,29.91,SSW,194,0.0,4.0,57,0.00,,,0.01,,2013-01-29 07:41:00,
2013-01-29 00:51:00,11.0,0.0,29.91,SSW,198,0.0,5.0,59,0.00,,,0.01,,2013-01-29 07:51:00,
2013-01-29 01:01:00,10.0,-1.0,29.90,South,172,1.0,4.0,59,0.00,,,0.01,,2013-01-29 08:01:00,
2013-01-29 01:11:00,10.0,-1.0,29.90,South,172,1.0,4.0,59,0.00,,,0.01,,2013-01-29 08:11:00,
2013-01-29 01:21:00,11.0,-2.0,29.90,South,173,0.0,4.0,55,0.00,,,0.01,,2013-01-29 08:21:00,
2013-01-29 01:31:00,10.0,-2.0,29.90,South,172,2.0,3.0,57,0.00,,,0.01,,2013-01-29 08:31:00,
2013-01-29 01:41:00,10.0,-2.0,29.90,South,172,2.0,3.0,57,0.00,,,0.01,,2013-01-29 08:41:00,
2013-01-29 01:52:00,9.0,-3.0,29.89,South,178,3.0,5.0,58,0.00,,,0.01,,2013-01-29 08:52:00,
2013-01-29 02:01:00,11.0,-3.0,29.89,South,178,0.0,4.0,52,0.00,,,0.01,,2013-01-29 09:01:00,
2013-01-29 02:11:00,11.0,-3.0,29.89,South,178,0.0,4.0,52,0.00,,,0.01,,2013-01-29 09:11:00,
2013-01-29 02:21:00,11.0,-3.0,29.89,South,178,1.0,3.0,53,0.00,,,0.01,,2013-01-29 09:21:00,
2013-01-29 02:31:00,13.0,-3.0,29.90,South,188,1.0,4.0,49,0.00,,,0.01,,2013-01-29 09:31:00,
2013-01-29 02:42:00,13.0,-3.0,29.90,South,188,1.0,4.0,49,0.00,,,0.01,,2013-01-29 09:42:00,
2013-01-29 02:51:00,12.0,-3.0,29.90,NW,312,0.0,5.0,50,0.00,,,0.01,,2013-01-29 09:51:00,
2013-01-29 03:01:00,10.0,-3.0,29.90,NW,312,0.0,2.0,56,0.00,,,0.01,,2013-01-29 10:01:00,
2013-01-29 03:11:00,10.0,-3.0,29.90,NW,312,0.0,2.0,56,0.00,,,0.01,,2013-01-29 10:11:00,
2013-01-29 03:21:00,9.0,-3.0,29.90,SE,134,3.0,5.0,57,0.00,,,0.01,,2013-01-29 10:21:00,
2013-01-29 03:32:00,10.0,-2.0,29.91,WSW,256,0.0,4.0,58,0.00,,,0.01,,2013-01-29 10:32:00,
2013-01-29 03:41:00,10.0,-2.0,29.91,WSW,256,0.0,4.0,58,0.00,,,0.01,,2013-01-29 10:41:00,
2013-01-29 03:51:00,9.0,-3.0,29.91,WSW,256,0.0,2.0,58,0.00,,,0.01,,2013-01-29 10:51:00,
2013-01-29 04:01:00,9.0,-2.0,29.91,WSW,255,0.0,1.0,60,0.00,,,0.01,,2013-01-29 11:01:00,
2013-01-29 04:11:00,9.0,-2.0,29.91,WSW,255,0.0,1.0,60,0.00,,,0.01,,2013-01-29 11:11:00,
2013-01-29 04:21:00,9.0,-1.0,29.91,WNW,290,1.0,3.0,62,0.00,,,0.01,,2013-01-29 11:21:00,
2013-01-29 04:31:00,10.0,0.0,29.91,SSW,193,0.0,5.0,62,0.00,,,0.01,,2013-01-29 11:31:00,
2013-01-29 04:41:00,10.0,0.0,29.91,SSW,193,0.0,5.0,62,0.00,,,0.01,,2013-01-29 11:41:00,
2013-01-29 04:52:00,9.0,-1.0,29.91,SSW,193,0.0,2.0,62,0.00,,,0.01,,2013-01-29 11:52:00,
2013-01-29 05:02:00,8.0,-2.0,29.91,SSW,192,0.0,4.0,62,0.00,,,0.01,,2013-01-29 12:02:00,
2013-01-29 05:12:00,8.0,-2.0,29.91,SSW,192,0.0,4.0,62,0.00,,,0.01,,2013-01-29 12:12:00,
2013-01-29 05:21:00,8.0,-3.0,29.91,SSW,192,2.0,3.0,61,0.00,,,0.01,,2013-01-29 12:21:00,
2013-01-29 05:32:00,7.0,-3.0,29.91,SSW,192,0.0,2.0,64,0.00,,,0.01,,2013-01-29 12:32:00,
2013-01-29 05:42:00,7.0,-3.0,29.91,SSW,192,0.0,2.0,64,0.00,,,0.01,,2013-01-29 12:42:00,
2013-01-29 05:52:00,9.0,-1.0,29.91,SSW,192,2.0,4.0,62,0.00,,,0.01,,2013-01-29 12:52:00,
2013-01-29 06:01:00,8.0,-2.0,29.91,SSW,192,0.0,2.0,62,0.00,,,0.01,,2013-01-29 13:01:00,
2013-01-29 06:11:00,8.0,-2.0,29.91,SSW,192,0.0,2.0,62,0.00,,,0.01,,2013-01-29 13:11:00,
2013-01-29 06:22:00,7.0,-3.0,29.91,SSW,192,0.0,3.0,63,0.00,,,0.01,,2013-01-29 13:22:00,
2013-01-29 06:31:00,8.0,-1.0,29.91,SSW,192,0.0,4.0,65,0.00,,,0.01,,2013-01-29 13:31:00,
2013-01-29 06:42:00,8.0,-1.0,29.91,SSW,192,0.0,4.0,65,0.00,,,0.01,,2013-01-29 13:42:00,
2013-01-29 06:52:00,8.0,-2.0,29.91,SSW,192,0.0,0.0,64,0.00,,,0.01,,2013-01-29 13:52:00,
2013-01-29 07:01:00,9.0,-1.0,29.92,SSW,192,0.0,1.0,63,0.00,,,0.01,,2013-01-29 14:01:00,
2013-01-29 07:11:00,10.0,0.0,29.92,SSW,192,1.0,3.0,62,0.00,,,0.01,,2013-01-29 14:11:00,
2013-01-29 07:21:00,10.0,0.0,29.92,SSW,192,1.0,3.0,62,0.00,,,0.01,,2013-01-29 14:21:00,
2013-01-29 07:32:00,11.0,-1.0,29.93,SSW,192,0.0,3.0,57,0.00,,,0.01,,2013-01-29 14:32:00,
2013-01-29 07:42:00,11.0,-1.0,29.93,SSW,192,0.0,3.0,57,0.00,,,0.01,,2013-01-29 14:42:00,
2013-01-29 07:52:00,10.0,0.0,29.93,SSW,192,0.0,2.0,62,0.00,,,0.01,,2013-01-29 14:52:00,
2013-01-29 08:02:00,10.0,-1.0,29.94,SSW,192,0.0,4.0,60,0.00,,,0.01,,2013-01-29 15:02:00,
2013-01-29 08:11:00,10.0,-1.0,29.94,SSW,192,0.0,4.0,60,0.00,,,0.01,,2013-01-29 15:11:00,
2013-01-29 08:21:00,10.0,0.0,29.94,SSW,192,0.0,3.0,63,0.00,,,0.01,,2013-01-29 15:21:00,
2013-01-29 08:32:00,10.0,0.0,29.94,SSW,192,0.0,3.0,63,0.00,,,0.01,,2013-01-29 15:32:00,
2013-01-29 08:42:00,10.0,0.0,29.94,SSW,192,0.0,3.0,63,0.00,,,0.01,,2013-01-29 15:42:00,
2013-01-29 08:52:00,12.0,0.0,29.95,SSW,192,0.0,2.0,59,0.00,,,0.01,,2013-01-29 15:52:00,
2013-01-29 09:02:00,13.0,2.0,29.95,SSW,192,0.0,0.0,60,0.00,,,0.01,,2013-01-29 16:02:00,
2013-01-29 09:12:00,13.0,2.0,29.95,SSW,192,0.0,0.0,60,0.00,,,0.01,,2013-01-29 16:12:00,
2013-01-29 09:22:00,14.0,4.0,29.96,SSW,192,0.0,0.0,63,0.00,,,0.01,,2013-01-29 16:22:00,
2013-01-29 09:32:00,15.0,4.0,29.97,SSW,192,0.0,0.0,62,0.00,,,0.01,,2013-01-29 16:32:00,
2013-01-29 09:42:00,15.0,4.0,29.97,SSW,192,0.0,0.0,62,0.00,,,0.01,,2013-01-29 16:42:00,
2013-01-29 09:52:00,17.0,5.0,29.97,SSW,192,0.0,0.0,59,0.00,,,0.01,,2013-01-29 16:52:00,
2013-01-29 10:02:00,20.0,5.0,29.98,SSW,192,0.0,1.0,51,0.00,,,0.01,,2013-01-29 17:02:00,
2013-01-29 10:11:00,20.0,5.0,29.98,SSW,192,0.0,1.0,51,0.00,,,0.01,,2013-01-29 17:11:00,
2013-01-29 10:21:00,22.0,2.0,29.99,SSW,192,0.0,0.0,41,0.00,,,0.01,,2013-01-29 17:21:00,
2013-01-29 10:32:00,23.0,1.0,29.99,SSW,192,0.0,2.0,38,0.00,,,0.01,,2013-01-29 17:32:00,
2013-01-29 10:42:00,23.0,1.0,29.99,SSW,192,0.0,2.0,38,0.00,,,0.01,,2013-01-29 17:42:00,
2013-01-29 10:52:00,24.0,0.0,29.99,SSW,192,0.0,2.0,35,0.00,,,0.01,,2013-01-29 17:52:00,
2013-01-29 11:03:00,24.0,0.0,30.00,SSW,192,1.0,3.0,34,0.00,,,0.01,,2013-01-29 18:03:00,
2013-01-29 11:12:00,24.0,0.0,30.00,SSW,192,1.0,3.0,34,0.00,,,0.01,,2013-01-29 18:12:00,
2013-01-29 11:22:00,24.0,-1.0,30.00,SW,233,1.0,4.0,33,0.00,,,0.01,,2013-01-29 18:22:00,
2013-01-29 11:33:00,25.0,0.0,30.01,SW,233,0.0,2.0,33,0.00,,,0.01,,2013-01-29 18:33:00,
2013-01-29 11:42:00,25.0,0.0,30.01,SW,233,0.0,2.0,33,0.00,,,0.01,,2013-01-29 18:42:00,
2013-01-29 11:51:00,26.0,2.0,30.01,NW,311,1.0,4.0,34,0.00,,,0.01,,2013-01-29 18:51:00,
2013-01-29 12:02:00,26.0,3.0,30.01,NNE,22,2.0,7.0,36,0.00,,,0.01,,2013-01-29 19:02:00,
2013-01-29 12:11:00,26.0,3.0,30.01,NNE,22,2.0,7.0,36,0.00,,,0.01,,2013-01-29 19:11:00,
2013-01-29 12:22:00,27.0,5.0,30.01,NNE,13,3.0,9.0,39,0.00,,,0.01,,2013-01-29 19:22:00,
2013-01-29 12:32:00,27.0,7.0,30.01,North,355,5.0,12.0,42,0.00,,,0.01,,2013-01-29 19:32:00,
2013-01-29 12:42:00,27.0,7.0,30.01,North,355,5.0,12.0,42,0.00,,,0.01,,2013-01-29 19:42:00,
2013-01-29 12:52:00,26.0,7.0,30.00,NNE,16,5.0,11.0,43,0.00,,,0.01,,2013-01-29 19:52:00,
2013-01-29 13:02:00,26.0,8.0,30.01,North,360,5.0,10.0,45,0.00,,,0.01,,2013-01-29 20:02:00,
2013-01-29 13:12:00,26.0,8.0,30.01,North,360,5.0,10.0,45,0.00,,,0.01,,2013-01-29 20:12:00,
2013-01-29 13:22:00,23.0,9.0,30.03,ENE,59,5.0,12.0,54,0.00,,,0.01,,2013-01-29 20:22:00,
2013-01-29 13:32:00,23.0,8.0,30.04,ENE,63,2.0,9.0,53,0.00,,,0.01,,2013-01-29 20:32:00,
2013-01-29 13:42:00,23.0,8.0,30.04,ENE,63,2.0,9.0,53,0.00,,,0.01,,2013-01-29 20:42:00,
2013-01-29 13:53:00,23.0,8.0,30.04,ENE,67,0.0,7.0,52,0.00,,,0.01,,2013-01-29 20:53:00,
2013-01-29 14:02:00,23.0,8.0,30.06,NE,46,1.0,6.0,52,0.00,,,0.01,,2013-01-29 21:02:00,
2013-01-29 14:11:00,23.0,8.0,30.06,NE,46,1.0,6.0,52,0.00,,,0.01,,2013-01-29 21:11:00,
2013-01-29 14:21:00,23.0,8.0,30.07,East,87,3.0,6.0,53,0.00,,,0.01,,2013-01-29 21:21:00,
2013-01-29 14:33:00,22.0,8.0,30.08,ENE,78,1.0,8.0,54,0.00,,,0.01,,2013-01-29 21:33:00,
2013-01-29 14:42:00,22.0,8.0,30.08,ENE,78,1.0,8.0,54,0.00,,,0.01,,2013-01-29 21:42:00,
2013-01-29 14:52:00,21.0,10.0,30.09,ESE,121,4.0,10.0,61,0.00,,,0.01,,2013-01-29 21:52:00,
2013-01-29 15:02:00,20.0,11.0,30.10,ESE,120,3.0,6.0,67,0.00,,,0.01,,2013-01-29 22:02:00,
2013-01-29 15:11:00,20.0,11.0,30.10,ESE,120,3.0,6.0,67,0.00,,,0.01,,2013-01-29 22:11:00,
2013-01-29 15:21:00,20.0,11.0,30.11,ESE,109,0.0,5.0,69,0.00,,,0.01,,2013-01-29 22:21:00,
2013-01-29 15:32:00,20.0,12.0,30.11,ESE,109,0.0,2.0,71,0.00,,,0.01,,2013-01-29 22:32:00,
2013-01-29 15:42:00,20.0,12.0,30.11,ESE,109,0.0,2.0,71,0.00,,,0.01,,2013-01-29 22:42:00,
2013-01-29 15:52:00,20.0,14.0,30.13,NE,47,0.0,3.0,78,0.00,,,0.01,,2013-01-29 22:52:00,
2013-01-29 16:02:00,20.0,14.0,30.13,NE,47,0.0,3.0,78,0.00,,,0.01,,2013-01-29 23:02:00,
2013-01-29 16:11:00,20.0,14.0,30.13,NE,47,0.0,3.0,78,0.00,,,0.01,,2013-01-29 23:11:00,
2013-01-29 16:22:00,20.0,14.0,30.13,NE,47,0.0,3.0,78,0.00,,,0.01,,2013-01-29 23:22:00,
2013-01-29 16:33:00,19.0,15.0,30.15,NNE,32,0.0,0.0,85,0.00,,,0.01,,2013-01-29 23:33:00,
2013-01-29 16:42:00,19.0,15.0,30.15,NNE,32,0.0,0.0,85,0.00,,,0.01,,2013-01-29 23:42:00,
2013-01-29 16:53:00,18.0,15.0,30.16,SE,128,0.0,4.0,86,0.00,,,0.01,,2013-01-29 23:53:00,
2013-01-29 17:02:00,18.0,14.0,30.16,SE,128,0.0,0.0,85,0.00,,,0.01,,2013-01-30 00:02:00,
2013-01-29 17:11:00,18.0,14.0,30.16,SE,128,0.0,0.0,85,0.00,,,0.01,,2013-01-30 00:11:00,
2013-01-29 17:21:00,18.0,15.0,30.17,SE,128,0.0,0.0,86,0.00,,,0.00,,2013-01-30 00:21:00,
2013-01-29 17:32:00,18.0,15.0,30.18,SE,128,0.0,0.0,87,0.00,,,0.00,,2013-01-30 00:32:00,
2013-01-29 17:42:00,18.0,15.0,30.18,SE,128,0.0,0.0,87,0.00,,,0.00,,2013-01-30 00:42:00,
2013-01-29 17:52:00,18.0,15.0,30.19,SE,128,0.0,0.0,88,0.00,,,0.00,,2013-01-30 00:52:00,
2013-01-29 18:01:00,18.0,15.0,30.21,SE,128,0.0,1.0,88,0.00,,,0.00,,2013-01-30 01:01:00,
2013-01-29 18:11:00,18.0,15.0,30.21,SE,128,0.0,1.0,88,0.00,,,0.00,,2013-01-30 01:11:00,
2013-01-29 18:22:00,18.0,15.0,30.22,North,350,0.0,2.0,88,0.00,,,0.00,,2013-01-30 01:22:00,
2013-01-29 18:32:00,18.0,15.0,30.22,SE,129,0.0,3.0,88,0.00,,,0.00,,2013-01-30 01:32:00,
2013-01-29 18:42:00,18.0,15.0,30.22,SE,129,0.0,3.0,88,0.00,,,0.00,,2013-01-30 01:42:00,
2013-01-29 18:51:00,18.0,15.0,30.23,SE,129,0.0,1.0,87,0.00,,,0.00,,2013-01-30 01:51:00,
2013-01-29 19:01:00,18.0,15.0,30.23,SE,129,0.0,1.0,87,0.00,,,0.00,,2013-01-30 02:01:00,
2013-01-29 19:11:00,18.0,15.0,30.23,SE,129,0.0,1.0,87,0.00,,,0.00,,2013-01-30 02:11:00,
2013-01-29 19:21:00,18.0,15.0,30.24,SE,124,0.0,1.0,88,0.00,,,0.00,,2013-01-30 02:21:00,
2013-01-29 19:32:00,18.0,15.0,30.25,East,92,0.0,0.0,88,0.00,,,0.00,,2013-01-30 02:32:00,
2013-01-29 19:42:00,18.0,15.0,30.25,East,92,0.0,0.0,88,0.00,,,0.00,,2013-01-30 02:42:00,
2013-01-29 19:53:00,18.0,15.0,30.26,NE,36,0.0,2.0,88,0.00,,,0.00,,2013-01-30 02:53:00,
2013-01-29 20:02:00,17.0,14.0,30.26,NE,37,0.0,0.0,88,0.00,,,0.00,,2013-01-30 03:02:00,
2013-01-29 20:11:00,17.0,14.0,30.26,NE,37,0.0,0.0,88,0.00,,,0.00,,2013-01-30 03:11:00,
2013-01-29 20:21:00,17.0,14.0,30.26,NE,37,0.0,0.0,87,0.00,,,0.00,,2013-01-30 03:21:00,
2013-01-29 20:31:00,15.0,11.0,30.26,SSE,158,0.0,0.0,83,0.00,,,0.00,,2013-01-30 03:31:00,
2013-01-29 20:41:00,15.0,11.0,30.26,SSE,158,0.0,0.0,83,0.00,,,0.00,,2013-01-30 03:41:00,
2013-01-29 20:52:00,12.0,8.0,30.26,SW,216,1.0,3.0,83,0.00,,,0.00,,2013-01-30 03:52:00,
2013-01-29 21:01:00,11.0,7.0,30.26,SSW,212,1.0,4.0,85,0.00,,,0.00,,2013-01-30 04:01:00,
2013-01-29 21:11:00,11.0,7.0,30.26,SSW,212,1.0,4.0,85,0.00,,,0.00,,2013-01-30 04:11:00,
2013-01-29 21:21:00,11.0,6.0,30.27,SW,230,0.0,6.0,80,0.00,,,0.00,,2013-01-30 04:21:00,
2013-01-29 21:31:00,13.0,5.0,30.26,SSW,206,5.0,9.0,69,0.00,,,0.00,,2013-01-30 04:31:00,
2013-01-29 21:41:00,13.0,5.0,30.26,SSW,206,5.0,9.0,69,0.00,,,0.00,,2013-01-30 04:41:00,
2013-01-29 21:52:00,12.0,3.0,30.26,SSW,213,3.0,8.0,66,0.00,,,0.00,,2013-01-30 04:52:00,
2013-01-29 22:03:00,12.0,2.0,30.25,South,191,5.0,8.0,64,0.00,,,0.00,,2013-01-30 05:03:00,
2013-01-29 22:11:00,12.0,2.0,30.25,South,191,5.0,8.0,64,0.00,,,0.00,,2013-01-30 05:11:00,
2013-01-29 22:22:00,12.0,1.0,30.25,South,190,5.0,10.0,61,0.00,,,0.00,,2013-01-30 05:22:00,
2013-01-29 22:31:00,12.0,1.0,30.24,SSW,207,3.0,8.0,61,0.00,,,0.00,,2013-01-30 05:31:00,
2013-01-29 22:42:00,12.0,1.0,30.24,SSW,207,3.0,8.0,61,0.00,,,0.00,,2013-01-30 05:42:00,
2013-01-29 22:52:00,11.0,0.0,30.23,South,191,2.0,7.0,60,0.00,,,0.00,,2013-01-30 05:52:00,
2013-01-29 23:02:00,11.0,-1.0,30.22,SW,215,2.0,9.0,58,0.00,,,0.00,,2013-01-30 06:02:00,
2013-01-29 23:11:00,11.0,-1.0,30.22,SW,215,2.0,9.0,58,0.00,,,0.00,,2013-01-30 06:11:00,
2013-01-29 23:21:00,12.0,0.0,30.22,SW,223,3.0,7.0,57,0.00,,,0.00,,2013-01-30 06:21:00,
2013-01-29 23:31:00,12.0,0.0,30.22,SSW,195,1.0,4.0,57,0.00,,,0.00,,2013-01-30 06:31:00,
2013-01-29 23:41:00,12.0,0.0,30.22,SSW,195,1.0,4.0,57,0.00,,,0.00,,2013-01-30 06:41:00,
2013-01-29 23:52:00,12.0,0.0,30.22,SSW,195,1.0,4.0,57,0.00,,,0.00,,2013-01-30 06:52:00,